Time;durP1;ratioP1;P1;durP2;ratioP2;P2;SDS_P1;SDS_P2;PMS_P1;PMS_P2;Temp;Humidity;BMP_temperature;BMP_pressure;BME280_temperature;BME280_humidity;BME280_pressure;Samples;Min_cycle;Max_cycle;Signal;HPM_P1;HPM_P2
2023/07/08 00:00:47;;;;;;;11.87;7.63;;;;;;;19.24;60.68;100543.28;4950031;29;20206;-67
2023/07/08 00:03:16;;;;;;;11.80;7.50;;;;;;;19.32;60.18;100545.81;4949943;29;20203;-67
2023/07/08 00:05:43;;;;;;;12.50;7.57;;;;;;;19.42;60.09;100545.59;4947458;28;20214;-67
2023/07/08 00:08:15;;;;;;;11.30;7.20;;;;;;;19.45;59.99;100541.06;4951875;28;20619;-67
2023/07/08 00:10:41;;;;;;;10.80;7.55;;;;;;;19.50;58.85;100545.44;4948405;29;20204;-67
2023/07/08 00:13:10;;;;;;;11.80;7.60;;;;;;;19.47;58.87;100540.13;4950907;28;20624;-67
2023/07/08 00:15:37;;;;;;;12.70;7.07;;;;;;;19.50;58.90;100542.75;4952166;29;20252;-67
2023/07/08 00:18:17;;;;;;;11.90;7.43;;;;;;;19.60;58.32;100532.72;4948265;29;20198;-67
2023/07/08 00:20:46;;;;;;;11.77;7.20;;;;;;;19.56;58.37;100539.06;4931264;28;20202;-67
2023/07/08 00:23:13;;;;;;;13.23;7.32;;;;;;;19.55;58.49;100538.19;4949875;28;20205;-68
2023/07/08 00:25:40;;;;;;;13.68;7.45;;;;;;;19.51;58.36;100536.47;4944694;29;20223;-67
2023/07/08 00:28:16;;;;;;;10.20;6.97;;;;;;;19.48;58.22;100536.53;4951000;29;20209;-67
2023/07/08 00:30:42;;;;;;;11.50;6.70;;;;;;;19.51;58.33;100538.25;4949083;28;20280;-67
2023/07/08 00:33:09;;;;;;;11.63;6.73;;;;;;;19.41;58.46;100538.44;4952013;29;20290;-67
2023/07/08 00:35:38;;;;;;;10.37;6.50;;;;;;;19.34;58.75;100539.50;4951649;28;20244;-67
2023/07/08 00:38:26;;;;;;;10.57;7.17;;;;;;;19.28;59.51;100541.44;4950352;28;20371;-67
2023/07/08 00:41:02;;;;;;;11.37;6.77;;;;;;;19.22;59.38;100546.91;4945858;28;20205;-68
2023/07/08 00:43:41;;;;;;;13.40;6.75;;;;;;;19.19;59.63;100550.53;4951673;29;20571;-67
2023/07/08 00:46:33;;;;;;;8.63;6.13;;;;;;;19.14;60.38;100551.53;4951246;29;20314;-68
2023/07/08 00:49:07;;;;;;;10.60;6.07;;;;;;;19.09;60.71;100544.44;4948427;28;20451;-67
2023/07/08 00:51:39;;;;;;;8.27;5.97;;;;;;;19.09;60.87;100546.25;4951949;29;20202;-67
2023/07/08 00:54:11;;;;;;;10.30;6.60;;;;;;;19.09;60.74;100551.63;4951757;29;20568;-67
2023/07/08 00:56:44;;;;;;;10.57;6.90;;;;;;;19.15;61.08;100540.75;4949298;28;20602;-67
2023/07/08 00:59:20;;;;;;;9.82;6.63;;;;;;;19.16;61.59;100542.53;4949733;28;20769;-67
2023/07/08 01:01:48;;;;;;;12.32;6.80;;;;;;;19.34;61.58;100535.94;4950263;29;20297;-67
2023/07/08 01:04:19;;;;;;;10.80;6.73;;;;;;;19.38;61.20;100538.50;4948702;29;20262;-67
2023/07/08 01:06:57;;;;;;;11.05;7.13;;;;;;;19.48;61.81;100543.69;4949543;28;20718;-67
2023/07/08 01:09:30;;;;;;;10.47;6.67;;;;;;;19.53;61.99;100540.03;4948743;29;20661;-67
2023/07/08 01:12:00;;;;;;;10.23;6.87;;;;;;;19.83;60.86;100542.97;4947760;28;20199;-67
2023/07/08 01:14:31;;;;;;;10.57;7.37;;;;;;;19.86;60.67;100542.91;4946607;29;20206;-67
2023/07/08 01:16:58;;;;;;;10.90;7.23;;;;;;;19.85;60.27;100541.16;4946949;29;20737;-67
2023/07/08 01:19:33;;;;;;;10.20;6.80;;;;;;;19.90;60.20;100536.56;4949611;29;20638;-67
2023/07/08 01:22:02;;;;;;;11.35;6.85;;;;;;;19.94;60.16;100535.56;4954335;28;20197;-67
2023/07/08 01:24:33;;;;;;;10.57;6.93;;;;;;;19.94;59.51;100536.44;4950588;29;20208;-67
2023/07/08 01:27:01;;;;;;;10.80;6.95;;;;;;;19.88;59.83;100535.69;4950193;29;20198;-67
2023/07/08 01:29:30;;;;;;;10.55;6.82;;;;;;;19.87;60.98;100540.19;4948801;29;20221;-68
2023/07/08 01:31:58;;;;;;;10.07;6.80;;;;;;;19.87;61.08;100521.38;4950063;29;20202;-67
2023/07/08 01:34:24;;;;;;;11.50;6.93;;;;;;;19.86;60.68;100516.03;4947851;28;20303;-67
2023/07/08 01:36:54;;;;;;;9.95;6.80;;;;;;;19.92;58.69;100506.03;4947051;29;20206;-67
2023/07/08 01:39:24;;;;;;;10.18;7.18;;;;;;;20.07;58.20;100503.91;4951029;29;20202;-67
2023/07/08 01:41:51;;;;;;;10.07;7.00;;;;;;;20.25;56.21;100504.34;4950008;29;20202;-67
2023/07/08 01:44:29;;;;;;;10.95;6.90;;;;;;;20.29;55.54;100507.84;4950168;29;20208;-67
2023/07/08 01:47:13;;;;;;;11.13;7.35;;;;;;;20.22;56.11;100508.91;4949325;28;20350;-67
2023/07/08 01:49:41;;;;;;;8.35;6.03;;;;;;;20.14;55.71;100503.72;4950178;29;20253;-68
2023/07/08 01:52:10;;;;;;;10.00;6.60;;;;;;;20.08;55.74;100501.19;4949963;29;20371;-68
2023/07/08 01:54:36;;;;;;;9.02;6.30;;;;;;;20.05;55.88;100506.66;4933460;29;20230;-67
2023/07/08 01:57:03;;;;;;;9.57;6.30;;;;;;;20.06;56.87;100520.97;4949251;29;20205;-67
2023/07/08 01:59:30;;;;;;;10.30;6.38;;;;;;;19.93;58.74;100531.09;4965630;28;20633;-67
2023/07/08 02:01:57;;;;;;;11.57;6.57;;;;;;;19.92;58.63;100543.66;4945360;28;20285;-67
2023/07/08 02:04:25;;;;;;;10.27;6.22;;;;;;;19.76;58.35;100552.09;4948964;29;20690;-67
2023/07/08 02:06:59;;;;;;;12.43;6.70;;;;;;;19.56;59.71;100549.81;4949017;29;20278;-67
2023/07/08 02:09:26;;;;;;;11.77;6.50;;;;;;;19.46;59.70;100541.03;4946504;29;20244;-67
2023/07/08 02:11:53;;;;;;;9.23;6.60;;;;;;;19.42;61.68;100539.34;4949179;29;20202;-67
2023/07/08 02:14:20;;;;;;;10.73;6.60;;;;;;;19.33;61.96;100535.03;4944423;29;20290;-67
2023/07/08 02:16:47;;;;;;;9.77;6.30;;;;;;;19.29;62.34;100522.59;4949352;29;20218;-67
2023/07/08 02:19:13;;;;;;;11.60;6.53;;;;;;;19.24;62.34;100518.25;4949352;29;20198;-67
2023/07/08 02:21:40;;;;;;;10.07;6.10;;;;;;;19.20;62.33;100516.50;4949236;28;20198;-67
2023/07/08 02:24:08;;;;;;;10.53;6.40;;;;;;;19.14;62.60;100509.44;4946068;29;20197;-67
2023/07/08 02:26:34;;;;;;;11.07;6.83;;;;;;;19.07;62.73;100516.75;4942212;29;20260;-67
2023/07/08 02:29:02;;;;;;;9.17;6.23;;;;;;;19.04;63.45;100511.44;4944874;29;20326;-67
2023/07/08 02:31:28;;;;;;;10.33;6.63;;;;;;;18.95;64.94;100508.94;4931997;29;20689;-67
2023/07/08 02:33:55;;;;;;;8.87;6.40;;;;;;;18.79;65.23;100511.00;4944820;29;20601;-67
2023/07/08 02:36:21;;;;;;;9.73;6.47;;;;;;;18.63;65.75;100503.28;4945688;29;20233;-67
2023/07/08 02:38:48;;;;;;;9.73;6.87;;;;;;;18.50;67.39;100504.38;4946007;29;20265;-67
2023/07/08 02:41:14;;;;;;;10.90;6.60;;;;;;;18.39;68.20;100509.91;4950152;29;20252;-67
2023/07/08 02:43:41;;;;;;;9.63;6.17;;;;;;;18.37;69.36;100515.28;4940243;29;20572;-67
2023/07/08 02:46:07;;;;;;;9.47;6.80;;;;;;;18.28;68.73;100525.28;4949221;29;20640;-67
2023/07/08 02:48:33;;;;;;;10.27;6.27;;;;;;;18.23;68.50;100517.31;4949341;29;20281;-67
2023/07/08 02:51:02;;;;;;;8.83;5.83;;;;;;;18.15;69.14;100517.44;4948450;29;20630;-67
2023/07/08 02:53:29;;;;;;;7.37;5.57;;;;;;;18.08;69.42;100522.91;4946191;29;20289;-67
2023/07/08 02:55:56;;;;;;;9.93;6.27;;;;;;;18.04;70.50;100519.41;4944745;29;20573;-67
2023/07/08 02:58:23;;;;;;;10.67;6.60;;;;;;;18.01;70.86;100514.09;4931049;29;20289;-67
2023/07/08 03:00:54;;;;;;;8.77;6.63;;;;;;;18.03;71.45;100519.44;4948703;29;20286;-67
2023/07/08 03:03:21;;;;;;;10.00;6.50;;;;;;;18.02;72.70;100517.66;4946897;29;20206;-67
2023/07/08 03:05:58;;;;;;;10.37;6.43;;;;;;;18.04;72.67;100521.19;4949048;29;20222;-67
2023/07/08 03:08:26;;;;;;;9.50;6.50;;;;;;;18.05;72.46;100521.19;4944585;29;20453;-67
2023/07/08 03:10:57;;;;;;;10.30;6.43;;;;;;;18.04;72.22;100516.72;4942422;29;20230;-67
2023/07/08 03:13:25;;;;;;;9.77;5.90;;;;;;;18.10;72.45;100521.09;4945586;29;20210;-67
2023/07/08 03:15:51;;;;;;;10.80;6.43;;;;;;;18.14;72.18;100526.38;4950899;29;20250;-67
2023/07/08 03:18:21;;;;;;;9.67;6.60;;;;;;;18.23;71.03;100525.34;4949249;29;20287;-67
2023/07/08 03:20:48;;;;;;;10.07;6.50;;;;;;;18.30;70.39;100527.03;4947003;28;20199;-67
2023/07/08 03:23:15;;;;;;;9.77;6.60;;;;;;;18.39;68.66;100516.13;4949405;29;20336;-67
2023/07/08 03:25:42;;;;;;;9.30;6.27;;;;;;;18.55;67.19;100526.63;4948615;29;20214;-67
2023/07/08 03:28:14;;;;;;;9.50;6.27;;;;;;;18.67;65.39;100521.97;4950584;29;20214;-65
2023/07/08 03:30:41;;;;;;;9.90;6.30;;;;;;;18.84;63.98;100526.16;4949773;29;20225;-65
2023/07/08 03:33:09;;;;;;;12.27;7.10;;;;;;;19.16;66.54;100518.38;4946450;28;20218;-65
2023/07/08 03:35:36;;;;;;;9.73;6.53;;;;;;;19.35;66.43;100529.63;4952187;29;20226;-65
2023/07/08 03:38:02;;;;;;;12.20;6.63;;;;;;;19.42;65.28;100542.03;4952980;29;20210;-65
2023/07/08 03:40:29;;;;;;;13.00;6.87;;;;;;;19.38;65.68;100543.00;4952541;29;20195;-65
2023/07/08 03:42:55;;;;;;;10.33;6.67;;;;;;;19.37;65.56;100536.75;4949314;29;20285;-65
2023/07/08 03:45:22;;;;;;;9.63;6.20;;;;;;;19.37;65.97;100547.50;4950249;28;20237;-65
2023/07/08 03:47:49;;;;;;;9.40;6.47;;;;;;;19.33;65.69;100535.03;4948049;29;20290;-65
2023/07/08 03:50:20;;;;;;;10.67;6.47;;;;;;;19.30;65.22;100535.09;4949104;29;20224;-65
2023/07/08 03:52:48;;;;;;;11.13;6.00;;;;;;;19.31;64.18;100536.00;4951364;29;20209;-65
2023/07/08 03:55:14;;;;;;;10.27;6.83;;;;;;;19.37;62.72;100543.91;4949661;29;20253;-66
2023/07/08 03:57:41;;;;;;;10.73;6.27;;;;;;;19.36;63.67;100537.66;4947515;29;20217;-68
2023/07/08 04:00:09;;;;;;;9.73;6.23;;;;;;;19.38;64.26;100540.31;4951985;29;20204;-68
2023/07/08 04:02:36;;;;;;;12.43;6.67;;;;;;;19.44;64.32;100545.56;4948232;28;20269;-67
2023/07/08 04:05:03;;;;;;;11.23;6.40;;;;;;;19.48;64.49;100546.38;4942273;29;20274;-68
2023/07/08 04:07:29;;;;;;;12.03;6.80;;;;;;;19.56;64.39;100549.81;4945916;29;20211;-68
2023/07/08 04:09:56;;;;;;;10.67;6.40;;;;;;;19.69;62.18;100556.72;4949971;29;20214;-68
2023/07/08 04:12:22;;;;;;;10.67;6.10;;;;;;;19.74;61.69;100549.44;4949962;29;20303;-67
2023/07/08 04:14:48;;;;;;;11.17;5.60;;;;;;;19.80;60.90;100545.75;4948463;29;20222;-67
2023/07/08 04:17:17;;;;;;;10.20;5.80;;;;;;;19.82;61.31;100549.28;4945664;29;20203;-68
2023/07/08 04:19:43;;;;;;;10.70;5.87;;;;;;;19.92;58.84;100546.34;4949047;29;20190;-67
2023/07/08 04:22:10;;;;;;;9.10;6.23;;;;;;;20.01;58.67;100543.47;4944662;29;20289;-67
2023/07/08 04:24:37;;;;;;;10.13;6.20;;;;;;;20.13;58.25;100538.72;4944139;28;20202;-67
2023/07/08 04:27:04;;;;;;;9.77;6.33;;;;;;;20.17;58.03;100537.72;4941945;29;20210;-67
2023/07/08 04:29:30;;;;;;;9.03;6.20;;;;;;;20.26;57.80;100541.09;4949000;29;20627;-67
2023/07/08 04:31:56;;;;;;;11.37;6.30;;;;;;;20.21;58.38;100545.69;4949487;29;20202;-68
2023/07/08 04:34:23;;;;;;;10.98;6.30;;;;;;;20.12;59.21;100555.78;4948081;29;20569;-67
2023/07/08 04:36:49;;;;;;;11.07;6.30;;;;;;;20.00;59.88;100555.13;4943283;29;20226;-68
2023/07/08 04:39:16;;;;;;;10.00;6.28;;;;;;;19.96;60.19;100560.59;4948455;29;20623;-69
2023/07/08 04:41:43;;;;;;;9.15;6.25;;;;;;;19.85;60.67;100573.41;4945806;29;20206;-68
2023/07/08 04:44:10;;;;;;;9.20;5.85;;;;;;;19.81;61.20;100571.69;4950246;29;20234;-69
2023/07/08 04:46:56;;;;;;;11.17;6.40;;;;;;;19.73;62.02;100574.56;4946635;29;20218;-68
2023/07/08 04:49:24;;;;;;;9.87;5.93;;;;;;;19.84;62.16;100571.63;4949017;29;20271;-68
2023/07/08 04:51:51;;;;;;;9.23;6.33;;;;;;;19.82;62.46;100570.78;4950729;29;20299;-68
2023/07/08 04:54:18;;;;;;;9.33;6.13;;;;;;;19.78;63.06;100569.09;4943159;29;20206;-69
2023/07/08 04:56:49;;;;;;;8.70;6.20;;;;;;;19.76;62.27;100565.53;4949431;29;20236;-68
2023/07/08 04:59:18;;;;;;;10.60;5.85;;;;;;;19.77;62.39;100568.19;4944244;29;20201;-68
2023/07/08 05:01:44;;;;;;;10.27;6.43;;;;;;;19.81;62.44;100564.53;4947903;29;20210;-68
2023/07/08 05:04:18;;;;;;;9.55;5.95;;;;;;;19.91;63.44;100566.09;4949233;29;20213;-70
2023/07/08 05:06:45;;;;;;;9.53;6.03;;;;;;;20.03;63.43;100571.22;4945624;29;20719;-69
2023/07/08 05:09:11;;;;;;;13.57;6.22;;;;;;;20.19;63.97;100563.66;4947937;29;20667;-68
2023/07/08 05:11:42;;;;;;;10.98;6.50;;;;;;;20.39;61.98;100565.88;4944984;28;20270;-67
2023/07/08 05:14:12;;;;;;;10.50;6.30;;;;;;;20.58;61.07;100558.28;4948389;29;20208;-68
2023/07/08 05:16:39;;;;;;;10.82;6.35;;;;;;;20.80;60.24;100550.53;4948491;29;20316;-67
2023/07/08 05:19:06;;;;;;;9.82;5.95;;;;;;;20.95;59.34;100558.22;4949656;29;20392;-68
2023/07/08 05:21:34;;;;;;;12.18;6.40;;;;;;;21.10;59.58;100565.88;4948159;29;20281;-68
2023/07/08 05:24:04;;;;;;;9.90;6.50;;;;;;;21.14;58.56;100551.41;4942204;29;20199;-70
2023/07/08 05:26:32;;;;;;;10.90;6.15;;;;;;;21.25;59.38;100564.63;4946787;29;20304;-68
2023/07/08 05:28:59;;;;;;;9.68;6.30;;;;;;;21.30;59.50;100578.88;4946955;28;20710;-68
2023/07/08 05:31:26;;;;;;;10.10;6.97;;;;;;;21.37;58.54;100571.50;4948384;29;20268;-68
2023/07/08 05:34:11;;;;;;;12.18;6.80;;;;;;;21.42;58.56;100577.63;4951090;29;20206;-68
2023/07/08 05:36:38;;;;;;;10.52;6.47;;;;;;;21.52;60.07;100577.31;4947423;28;20334;-68
2023/07/08 05:39:04;;;;;;;12.05;6.38;;;;;;;21.57;60.16;100585.28;4944577;29;20234;-68
2023/07/08 05:41:33;;;;;;;11.73;7.15;;;;;;;21.55;60.49;100584.44;4945268;29;20198;-67
2023/07/08 05:44:01;;;;;;;10.80;7.22;;;;;;;21.66;60.79;100585.03;4949747;29;20202;-69
2023/07/08 05:46:28;;;;;;;11.48;6.65;;;;;;;21.75;59.72;100576.66;4948939;29;20305;-69
2023/07/08 05:48:54;;;;;;;12.07;7.07;;;;;;;21.78;60.84;100587.34;4949947;29;20576;-68
2023/07/08 05:51:22;;;;;;;10.60;6.80;;;;;;;21.77;60.08;100580.19;4950827;29;20232;-68
2023/07/08 05:53:48;;;;;;;11.95;7.20;;;;;;;21.78;59.77;100590.06;4948850;29;20197;-69
2023/07/08 05:56:17;;;;;;;10.82;7.18;;;;;;;21.83;59.83;100592.63;4947388;29;20337;-69
2023/07/08 05:58:43;;;;;;;10.60;7.35;;;;;;;21.84;59.44;100597.06;4947529;29;20214;-68
2023/07/08 06:01:10;;;;;;;11.50;6.90;;;;;;;21.78;59.42;100606.22;4945759;28;20213;-69
2023/07/08 06:03:37;;;;;;;12.32;6.72;;;;;;;21.68;59.65;100611.94;4947865;29;20194;-68
2023/07/08 06:06:05;;;;;;;10.75;6.43;;;;;;;21.59;59.76;100615.75;4948438;29;20610;-68
2023/07/08 06:08:34;;;;;;;9.77;6.43;;;;;;;21.46;60.85;100617.03;4948327;28;20289;-68
2023/07/08 06:11:00;;;;;;;14.77;7.10;;;;;;;21.35;59.39;100622.72;4941121;29;20223;-69
2023/07/08 06:13:27;;;;;;;10.63;6.78;;;;;;;21.34;59.46;100615.56;4949847;29;20697;-68
2023/07/08 06:15:54;;;;;;;14.73;8.13;;;;;;;21.37;60.96;100623.56;4945447;29;20225;-68
2023/07/08 06:18:21;;;;;;;11.98;7.30;;;;;;;21.34;61.50;100617.38;4947301;28;20689;-68
2023/07/08 06:20:52;;;;;;;11.00;6.32;;;;;;;21.29;59.91;100605.84;4930513;29;20694;-69
2023/07/08 06:23:18;;;;;;;11.15;6.80;;;;;;;21.21;60.75;100616.78;4942249;29;20203;-67
2023/07/08 06:25:45;;;;;;;10.15;6.05;;;;;;;21.22;60.38;100616.75;4945991;29;20305;-70
2023/07/08 06:28:11;;;;;;;9.52;6.38;;;;;;;21.33;59.15;100618.31;4947321;29;20684;-70
2023/07/08 06:30:38;;;;;;;10.57;6.60;;;;;;;21.45;57.44;100616.16;4947815;29;20238;-68
2023/07/08 06:33:05;;;;;;;9.27;5.78;;;;;;;21.64;55.70;100615.66;4949236;29;20301;-68
2023/07/08 06:35:31;;;;;;;11.75;6.10;;;;;;;21.95;53.30;100612.94;4943701;28;20218;-69
2023/07/08 06:37:58;;;;;;;8.68;6.00;;;;;;;22.28;49.98;100616.47;4948681;29;20661;-68
2023/07/08 06:40:24;;;;;;;8.88;6.07;;;;;;;22.60;51.30;100618.16;4930867;29;20206;-71
2023/07/08 06:42:51;;;;;;;10.20;6.25;;;;;;;22.97;48.34;100631.34;4946529;29;20202;-68
2023/07/08 06:45:17;;;;;;;11.35;6.50;;;;;;;23.23;47.81;100638.59;4949494;29;20260;-67
2023/07/08 06:47:44;;;;;;;12.65;6.05;;;;;;;23.44;46.21;100652.22;4947477;28;20202;-69
2023/07/08 06:50:10;;;;;;;14.65;6.18;;;;;;;23.59;46.74;100652.63;4950310;29;20308;-69
2023/07/08 06:52:37;;;;;;;10.90;7.00;;;;;;;23.47;49.67;100651.22;4950415;28;20203;-66
2023/07/08 06:55:06;;;;;;;10.02;6.35;;;;;;;23.41;51.14;100654.13;4952890;29;20234;-66
2023/07/08 06:57:33;;;;;;;13.43;6.32;;;;;;;23.38;52.91;100659.66;4950365;28;20198;-66
2023/07/08 07:00:00;;;;;;;9.38;6.35;;;;;;;23.29;53.43;100643.78;4949847;29;20198;-66
2023/07/08 07:02:27;;;;;;;9.70;5.90;;;;;;;23.35;48.70;100632.75;4952249;29;20765;-67
2023/07/08 07:04:55;;;;;;;10.57;6.25;;;;;;;23.52;48.57;100632.13;4950167;29;20230;-67
2023/07/08 07:07:21;;;;;;;11.07;6.78;;;;;;;23.77;48.10;100646.56;4946074;29;20203;-67
2023/07/08 07:09:48;;;;;;;11.20;6.47;;;;;;;24.00;48.66;100659.22;4951802;28;20212;-71
2023/07/08 07:12:15;;;;;;;10.18;6.13;;;;;;;24.08;51.03;100659.84;4953036;28;20584;-68
2023/07/08 07:14:41;;;;;;;9.50;6.03;;;;;;;24.01;50.21;100669.09;4952826;29;20685;-68
2023/07/08 07:17:10;;;;;;;8.52;5.80;;;;;;;24.04;50.68;100674.44;4956244;28;20206;-68
2023/07/08 07:19:37;;;;;;;10.20;6.10;;;;;;;24.08;49.32;100680.59;4948785;28;20202;-68
2023/07/08 07:22:04;;;;;;;12.13;6.45;;;;;;;24.20;48.26;100672.91;4948737;28;20194;-68
2023/07/08 07:24:32;;;;;;;10.45;6.18;;;;;;;24.27;48.79;100674.47;4952739;28;20772;-68
2023/07/08 07:26:59;;;;;;;14.07;5.88;;;;;;;24.48;47.48;100675.47;4950362;29;20205;-68
2023/07/08 07:29:25;;;;;;;8.77;5.45;;;;;;;24.86;46.18;100670.34;4952604;29;20900;-68
2023/07/08 07:31:52;;;;;;;9.13;5.95;;;;;;;26.85;41.94;100665.91;4948142;29;20221;-67
2023/07/08 07:34:18;;;;;;;10.65;5.85;;;;;;;29.21;36.49;100666.69;4944568;28;20214;-67
2023/07/08 07:36:45;;;;;;;9.43;5.95;;;;;;;31.60;30.99;100654.97;4950433;28;20237;-68
2023/07/08 07:39:11;;;;;;;11.77;6.32;;;;;;;33.36;27.56;100654.88;4949650;29;20666;-68
2023/07/08 07:41:38;;;;;;;8.57;5.68;;;;;;;33.57;25.67;100649.56;4949344;29;20246;-67
2023/07/08 07:44:04;;;;;;;8.60;5.32;;;;;;;32.37;26.57;100654.94;4951697;29;20685;-68
2023/07/08 07:46:31;;;;;;;10.20;6.00;;;;;;;31.56;28.09;100658.91;4952714;29;20214;-68
2023/07/08 07:48:57;;;;;;;9.00;5.10;;;;;;;32.55;26.25;100663.69;4951033;29;20807;-66
2023/07/08 07:51:23;;;;;;;7.05;5.05;;;;;;;33.57;24.30;100658.66;4949910;29;20605;-68
2023/07/08 07:53:50;;;;;;;10.10;5.80;;;;;;;33.28;23.87;100658.19;4951958;28;20663;-68
2023/07/08 07:56:16;;;;;;;9.43;4.90;;;;;;;34.50;22.37;100659.50;4950071;29;20234;-66
2023/07/08 07:58:43;;;;;;;6.80;4.95;;;;;;;34.17;22.21;100646.59;4949324;28;20290;-66
2023/07/08 08:01:09;;;;;;;10.18;5.07;;;;;;;34.58;22.02;100655.22;4947831;29;20210;-66
2023/07/08 08:03:36;;;;;;;7.97;4.78;;;;;;;34.58;21.16;100660.72;4950308;28;20198;-69
2023/07/08 08:06:02;;;;;;;9.90;5.22;;;;;;;34.46;21.48;100648.88;4945650;28;20249;-70
2023/07/08 08:08:29;;;;;;;10.32;4.95;;;;;;;35.39;21.64;100643.78;4950840;29;20198;-69
2023/07/08 08:10:55;;;;;;;7.72;5.50;;;;;;;35.83;21.42;100644.56;4949109;28;20253;-68
2023/07/08 08:13:21;;;;;;;8.00;4.97;;;;;;;35.95;20.52;100646.22;4951672;28;20202;-69
2023/07/08 08:15:48;;;;;;;7.38;5.05;;;;;;;35.94;20.87;100645.34;4951142;28;20222;-69
2023/07/08 08:18:14;;;;;;;8.07;5.43;;;;;;;35.25;21.52;100642.19;4949443;29;20586;-69
2023/07/08 08:20:41;;;;;;;8.40;5.40;;;;;;;33.93;22.87;100648.53;4950625;28;20202;-66
2023/07/08 08:23:07;;;;;;;8.07;5.00;;;;;;;34.11;23.24;100658.09;4946102;29;20704;-69
2023/07/08 08:25:34;;;;;;;7.00;5.05;;;;;;;34.54;23.13;100651.84;4951155;28;20222;-68
2023/07/08 08:28:00;;;;;;;7.72;5.20;;;;;;;34.96;23.14;100650.19;4949523;28;20213;-68
2023/07/08 08:30:26;;;;;;;8.02;5.18;;;;;;;34.98;23.35;100652.81;4952439;28;20258;-67
2023/07/08 08:32:53;;;;;;;9.38;5.22;;;;;;;34.55;24.42;100651.72;4953014;28;20681;-69
2023/07/08 08:35:19;;;;;;;9.27;5.15;;;;;;;34.25;23.79;100648.69;4949376;28;20710;-67
2023/07/08 08:37:46;;;;;;;6.03;4.50;;;;;;;34.51;21.98;100644.72;4949553;28;20225;-68
2023/07/08 08:40:16;;;;;;;7.20;4.85;;;;;;;34.34;22.79;100647.09;4947006;28;20281;-67
2023/07/08 08:42:53;;;;;;;9.23;4.97;;;;;;;34.52;22.69;100645.59;4959391;28;20194;-68
2023/07/08 08:45:21;;;;;;;9.85;5.15;;;;;;;34.25;22.80;100645.94;4961325;28;20663;-68
2023/07/08 08:47:52;;;;;;;6.43;5.13;;;;;;;34.38;21.77;100646.72;4959651;28;20205;-69
2023/07/08 08:50:38;;;;;;;6.38;4.80;;;;;;;34.40;22.65;100643.84;4954708;28;20240;-68
2023/07/08 08:53:11;;;;;;;7.43;5.22;;;;;;;34.55;22.14;100648.09;4946456;29;20208;-69
2023/07/08 08:55:38;;;;;;;6.82;4.93;;;;;;;34.38;21.99;100648.59;4946488;28;20268;-67
2023/07/08 08:58:23;;;;;;;6.95;5.18;;;;;;;34.01;22.24;100648.81;4947126;28;20226;-65
2023/07/08 09:00:59;;;;;;;6.72;4.80;;;;;;;33.61;22.09;100653.81;4949397;28;20194;-66
2023/07/08 09:03:49;;;;;;;8.23;5.00;;;;;;;33.38;22.77;100652.88;4949947;29;20210;-66
2023/07/08 09:06:29;;;;;;;6.90;5.00;;;;;;;32.89;23.70;100650.22;4947577;29;20635;-66
2023/07/08 09:09:00;;;;;;;7.60;5.28;;;;;;;32.84;24.36;100666.19;4950793;28;20198;-66
2023/07/08 09:11:51;;;;;;;9.18;5.75;;;;;;;33.01;23.54;100669.38;4949415;28;20226;-65
2023/07/08 09:14:23;;;;;;;7.38;5.25;;;;;;;33.11;24.34;100672.31;4945470;29;20706;-65
2023/07/08 09:16:53;;;;;;;7.00;5.35;;;;;;;33.08;24.16;100664.31;4946298;29;20217;-66
2023/07/08 09:19:34;;;;;;;7.65;5.60;;;;;;;32.84;24.28;100658.81;4950661;29;20249;-65
2023/07/08 09:22:14;;;;;;;9.05;5.20;;;;;;;32.88;24.28;100659.47;4951577;29;20222;-65
2023/07/08 09:24:45;;;;;;;8.35;5.32;;;;;;;32.80;24.46;100661.88;4949805;29;20232;-66
2023/07/08 09:27:12;;;;;;;5.97;5.10;;;;;;;32.72;24.70;100655.06;4949628;29;20209;-65
2023/07/08 09:29:38;;;;;;;7.20;5.57;;;;;;;32.61;24.77;100655.00;4951416;29;20199;-66
2023/07/08 09:32:18;;;;;;;6.40;5.25;;;;;;;32.40;24.50;100659.31;4950350;29;20222;-66
2023/07/08 09:34:53;;;;;;;10.05;5.38;;;;;;;32.27;25.10;100644.75;4948957;28;20202;-66
2023/07/08 09:37:30;;;;;;;8.95;5.50;;;;;;;32.23;25.34;100645.94;4950434;29;20578;-65
2023/07/08 09:39:59;;;;;;;8.30;5.47;;;;;;;32.21;25.43;100642.44;4950019;29;20202;-66
2023/07/08 09:42:32;;;;;;;11.13;5.63;;;;;;;31.98;25.13;100644.06;4949553;29;20202;-65
2023/07/08 09:45:02;;;;;;;6.30;5.10;;;;;;;32.16;25.64;100647.38;4949573;29;20305;-65
2023/07/08 09:47:33;;;;;;;9.45;5.40;;;;;;;32.10;25.42;100640.47;4949910;29;20194;-65
2023/07/08 09:50:00;;;;;;;8.05;5.13;;;;;;;32.20;24.85;100636.06;4950542;29;20205;-65
2023/07/08 09:52:29;;;;;;;8.23;5.60;;;;;;;32.31;24.66;100635.31;4946099;29;20219;-65
2023/07/08 09:54:56;;;;;;;9.80;6.35;;;;;;;32.58;24.75;100627.81;4945272;28;20234;-66
2023/07/08 09:57:31;;;;;;;14.00;6.07;;;;;;;32.70;23.80;100626.00;4955856;28;20590;-65
2023/07/08 10:00:02;;;;;;;6.85;5.28;;;;;;;32.80;23.54;100632.56;4948004;28;20198;-65
2023/07/08 10:02:40;;;;;;;10.23;5.90;;;;;;;32.98;22.95;100630.31;4948269;28;20205;-65
2023/07/08 10:05:33;;;;;;;8.55;5.60;;;;;;;33.29;23.38;100626.09;4948970;28;20282;-66
2023/07/08 10:08:01;;;;;;;7.00;5.30;;;;;;;33.49;23.16;100627.31;4949070;28;20209;-65
2023/07/08 10:10:33;;;;;;;10.07;5.70;;;;;;;33.45;22.59;100626.69;4944241;28;20203;-66
2023/07/08 10:13:17;;;;;;;8.30;5.53;;;;;;;33.45;23.44;100623.06;4941019;28;20202;-65
2023/07/08 10:15:56;;;;;;;12.18;6.00;;;;;;;33.57;23.06;100622.97;4940903;28;20587;-66
2023/07/08 10:18:30;;;;;;;8.35;5.45;;;;;;;33.96;23.02;100623.56;4947623;28;20208;-66
2023/07/08 10:21:15;;;;;;;11.60;5.82;;;;;;;34.08;23.25;100616.22;4949372;28;20195;-66
2023/07/08 10:24:17;;;;;;;10.00;5.72;;;;;;;34.32;22.38;100624.31;4943394;28;20206;-65
2023/07/08 10:26:48;;;;;;;9.07;5.70;;;;;;;34.21;22.76;100609.59;4945047;28;20717;-66
2023/07/08 10:29:34;;;;;;;8.55;5.45;;;;;;;34.37;22.38;100613.84;4949381;28;20226;-65
2023/07/08 10:32:42;;;;;;;8.95;5.22;;;;;;;34.28;22.64;100611.81;4963696;28;20229;-65
2023/07/08 10:35:17;;;;;;;11.05;5.90;;;;;;;34.14;23.30;100612.97;4937568;28;20224;-65
2023/07/08 10:38:18;;;;;;;10.02;5.97;;;;;;;34.04;22.74;100609.22;4948749;29;20280;-65
2023/07/08 10:40:53;;;;;;;9.52;5.45;;;;;;;34.14;22.97;100615.72;4949514;29;20572;-65
2023/07/08 10:43:48;;;;;;;9.63;5.80;;;;;;;34.07;23.15;100615.34;4948334;28;20296;-65
2023/07/08 10:46:30;;;;;;;8.77;5.40;;;;;;;33.98;23.35;100621.56;4948579;28;20221;-66
2023/07/08 10:49:30;;;;;;;11.32;5.53;;;;;;;33.79;23.79;100616.66;4943249;28;20206;-66
2023/07/08 10:51:56;;;;;;;11.18;6.40;;;;;;;33.84;23.77;100613.56;4941106;28;20253;-66
2023/07/08 10:54:35;;;;;;;8.50;5.47;;;;;;;33.79;23.51;100616.66;4941472;28;20671;-66
2023/07/08 10:57:14;;;;;;;7.63;5.70;;;;;;;33.77;24.03;100612.28;4942124;28;20202;-67
2023/07/08 11:00:01;;;;;;;12.70;5.45;;;;;;;33.74;23.92;100618.91;4936067;28;20292;-68
2023/07/08 11:02:55;;;;;;;9.60;5.53;;;;;;;33.69;24.27;100612.88;4948858;28;20640;-68
2023/07/08 11:05:40;;;;;;;13.35;5.72;;;;;;;33.60;24.46;100611.72;4950604;28;20312;-67
2023/07/08 11:08:32;;;;;;;8.35;5.57;;;;;;;33.52;24.83;100616.06;4952580;28;20206;-67
2023/07/08 11:11:01;;;;;;;10.57;5.07;;;;;;;33.44;25.02;100615.81;4950176;28;20226;-68
2023/07/08 11:13:49;;;;;;;9.13;5.78;;;;;;;33.47;25.29;100612.81;4951132;28;20224;-67
2023/07/08 11:16:23;;;;;;;11.38;5.78;;;;;;;33.61;25.07;100615.34;4949628;28;20777;-68
2023/07/08 11:18:59;;;;;;;10.32;5.07;;;;;;;33.66;25.53;100612.25;4948138;28;20194;-67
2023/07/08 11:21:33;;;;;;;8.07;5.32;;;;;;;33.54;24.97;100614.97;4948577;28;20204;-68
2023/07/08 11:24:24;;;;;;;10.52;5.55;;;;;;;33.55;24.89;100616.72;4950078;28;20245;-68
2023/07/08 11:26:57;;;;;;;7.72;5.50;;;;;;;33.40;25.39;100615.19;4948715;28;20393;-68
2023/07/08 11:29:42;;;;;;;8.55;5.75;;;;;;;33.51;26.14;100606.97;4949814;28;20739;-67
2023/07/08 11:32:16;;;;;;;11.80;5.53;;;;;;;33.53;25.51;100612.34;4949913;28;20222;-67
2023/07/08 11:34:46;;;;;;;9.60;5.72;;;;;;;33.44;26.21;100602.09;4933539;29;20198;-68
2023/07/08 11:37:13;;;;;;;7.78;5.25;;;;;;;33.57;25.83;100606.47;4954122;28;20422;-68